ANS Tabelle Schwellentempo

ANS Tabelle – Schwellentempo bestimmen: In den Spaltenüberschriften stehen 2 Distanzen zur Vergleichsauswahl. Die ANS-Spalte gibt die ungefähre Geschwindigkeit an der ANS (anaerobe Schwelle) an. Sie ist vom 10-km-Tempo her auf eine Stunde hochgerechnet. Leistungstest geben natürlich viel genauere Werte wieder.

ANS Tabelle generierenDiese Tabelle ist für Hobby-Läufer gedacht, welche keine Leistungstest machen wollen und nur eine Annäherung an die persönliche ANS für ihre Trainingsplanung benötigen.

Eine Tabelle zum Ausdrucken, in der du die Teilstrecken abändern kannst, findest du unter Tempotabelle.

Wenn du andere Intervall-Distanzen ausrechnen möchtest, kannst du hier eine Excel-Tabelle zum automatischen Berechnen downloaden:

» EXCEL Tabelle zum ANS-Tempo

5 km10 kmkm/h – ANSTempo 400 mTempo 800 mTempo 1000 m
0:28:501:00:459.4 km/h2:335:066:22
0:28:301:00:029.5 km/h2:315:026:18
0:28:100:59:209.6 km/h2:294:596:14
0:27:500:58:389.8 km/h2:284:556:09
0:27:300:57:569.9 km/h2:264:526:05
0:27:100:57:1410.0 km/h2:244:486:00
0:26:500:56:3210.1 km/h2:224:455:56
0:26:300:55:5010.2 km/h2:214:415:51
0:26:100:55:0810.4 km/h2:194:385:47
0:25:500:54:2510.5 km/h2:174:345:43
5 km10 kmkm/h – ANSTempo 400 mTempo 800 mTempo 1000 m
0:25:300:53:4310.6 km/h2:154:315:38
0:25:100:53:0110.8 km/h2:144:275:34
0:24:500:52:1910.9 km/h2:124:245:29
0:24:300:51:3711.1 km/h2:104:205:25
0:24:100:50:5511.2 km/h2:084:165:21
0:23:500:50:1311.4 km/h2:064:135:16
0:23:300:49:3011.5 km/h2:054:095:12
0:23:100:48:4811.7 km/h2:034:065:07
0:22:500:48:0611.9 km/h2:014:025:03
0:22:300:47:2412.1 km/h1:593:594:58








5 km10 kmkm/h – ANSTempo 400 mTempo 800 mTempo 1000 m
0:22:100:46:4212.2 km/h1:583:554:54
0:21:500:46:0012.4 km/h1:563:524:50
0:21:300:45:1812.6 km/h1:543:484:45
0:21:100:44:3612.8 km/h1:523:454:41
0:20:500:43:5313.0 km/h1:512:414:36
0:20:300:43:1113.2 km/h1:493:384:32
0:20:100:42:2913.5 km/h1:473:344:27
0:19:500:41:4713.7 km/h1:453:304:23
0:19:300:41:0513.9 km/h1:433:274:19
0:19:100:40:2314.2 km/h1:423:234:14
5 km10 kmkm/h – ANSTempo 400 mTempo 800 mTempo 1000 m
0:18:500:39:4114.4 km/h1:403:204:10
0:18:300:38:5814.7 km/h1:383:164:05
0:18:100:38:1614.9 km/h1:363:134:01
0:17:500:37:3415.2 km/h1:353:093:57
0:17:300:36:5215.5 km/h1:333:063:52
0:17:100:36:1015.8 km/h1:313:023:48
0:16:500:35:2816.1 km/h1:292:593:43
0:16:300:34:4616.4 km/h1:282:553:39
0:16:100:34:0416.8 km/h1:262:523:34
0:15:500:33:2117.1 km/h1:242:483:30
0:15:300:32:3917.5 km/h1:222:443:26

» EXCEL Tabelle zum ANS-Tempo

» Tempotabelle generieren

» Schwellentraining




Seitencode: LT158

Kommentare sind geschlossen.